Terminal Aerodrome Forecast
Issued by NWS Wilmington, NC

Home | Current Version | Previous Version | Text Only | Print | Product List | Glossary On
Versions: 1 2 3 4 5 6 7 8 9 10 11 12 13 14
000
FTUS42 KILM 300500
TAFMYR
TAF
KMYR 300520Z 3006/3106 04003KT 5SM BR BKN120
     FM301300 06006KT P6SM SCT040
     FM301700 12012KT P6SM BKN040
     FM310100 09006KT P6SM SCT080
      AMD LTD TO CLD VIS AND WIND TIL 301100=

USA.gov is the U.S. government's official web portal to all federal, state and local government web resources and services.